sensor_id;sensor_type;location;lat;lon;timestamp;temperature;humidity
8475;DHT22;4274;52.012;8.448;2023-10-19T00:00:32;9.00;99.90
8475;DHT22;4274;52.012;8.448;2023-10-19T00:03:11;9.00;99.90
8475;DHT22;4274;52.012;8.448;2023-10-19T00:05:37;9.00;99.90
8475;DHT22;4274;52.012;8.448;2023-10-19T00:08:05;9.00;99.90
8475;DHT22;4274;52.012;8.448;2023-10-19T00:10:32;8.90;99.90
8475;DHT22;4274;52.012;8.448;2023-10-19T00:13:01;8.90;99.90
8475;DHT22;4274;52.012;8.448;2023-10-19T00:15:33;8.80;99.90
8475;DHT22;4274;52.012;8.448;2023-10-19T00:18:00;8.80;99.90
8475;DHT22;4274;52.012;8.448;2023-10-19T00:20:47;8.70;99.90
8475;DHT22;4274;52.012;8.448;2023-10-19T00:23:16;8.70;99.90
8475;DHT22;4274;52.012;8.448;2023-10-19T00:25:50;8.70;99.90
8475;DHT22;4274;52.012;8.448;2023-10-19T00:28:19;8.70;99.90
8475;DHT22;4274;52.012;8.448;2023-10-19T00:30:44;8.70;99.90
8475;DHT22;4274;52.012;8.448;2023-10-19T00:33:15;8.70;99.90
8475;DHT22;4274;52.012;8.448;2023-10-19T00:35:45;8.70;99.90
8475;DHT22;4274;52.012;8.448;2023-10-19T00:38:37;8.70;99.90
8475;DHT22;4274;52.012;8.448;2023-10-19T00:41:18;8.70;99.90
8475;DHT22;4274;52.012;8.448;2023-10-19T00:43:48;8.70;99.90
8475;DHT22;4274;52.012;8.448;2023-10-19T00:46:23;8.70;99.90
8475;DHT22;4274;52.012;8.448;2023-10-19T00:48:59;8.70;99.90
8475;DHT22;4274;52.012;8.448;2023-10-19T00:51:29;8.70;99.90
8475;DHT22;4274;52.012;8.448;2023-10-19T00:54:18;8.70;99.90
8475;DHT22;4274;52.012;8.448;2023-10-19T00:56:53;8.60;99.90
8475;DHT22;4274;52.012;8.448;2023-10-19T00:59:24;8.60;99.90
8475;DHT22;4274;52.012;8.448;2023-10-19T01:01:55;8.60;99.90
8475;DHT22;4274;52.012;8.448;2023-10-19T01:04:42;8.60;99.90
8475;DHT22;4274;52.012;8.448;2023-10-19T01:07:09;8.60;99.90
8475;DHT22;4274;52.012;8.448;2023-10-19T01:09:43;8.60;99.90
8475;DHT22;4274;52.012;8.448;2023-10-19T01:12:10;8.60;99.90
8475;DHT22;4274;52.012;8.448;2023-10-19T01:17:51;8.60;99.90
8475;DHT22;4274;52.012;8.448;2023-10-19T01:20:20;8.60;99.90
8475;DHT22;4274;52.012;8.448;2023-10-19T01:22:55;8.50;99.90
8475;DHT22;4274;52.012;8.448;2023-10-19T01:25:45;8.50;99.90
8475;DHT22;4274;52.012;8.448;2023-10-19T01:28:35;8.50;99.90
8475;DHT22;4274;52.012;8.448;2023-10-19T01:31:20;8.50;99.90
8475;DHT22;4274;52.012;8.448;2023-10-19T01:33:58;8.60;99.90
8475;DHT22;4274;52.012;8.448;2023-10-19T01:36:27;8.60;99.90
8475;DHT22;4274;52.012;8.448;2023-10-19T01:38:54;8.60;99.90
8475;DHT22;4274;52.012;8.448;2023-10-19T01:41:24;8.60;99.90
8475;DHT22;4274;52.012;8.448;2023-10-19T01:43:51;8.60;99.90
8475;DHT22;4274;52.012;8.448;2023-10-19T01:46:21;8.60;99.90
8475;DHT22;4274;52.012;8.448;2023-10-19T01:48:48;8.60;99.90
8475;DHT22;4274;52.012;8.448;2023-10-19T01:51:25;8.60;99.90
8475;DHT22;4274;52.012;8.448;2023-10-19T01:53:52;8.60;99.90
8475;DHT22;4274;52.012;8.448;2023-10-19T01:56:18;8.60;99.90
8475;DHT22;4274;52.012;8.448;2023-10-19T01:58:46;8.60;99.90
8475;DHT22;4274;52.012;8.448;2023-10-19T02:01:16;8.60;99.90
8475;DHT22;4274;52.012;8.448;2023-10-19T02:03:55;8.60;99.90
8475;DHT22;4274;52.012;8.448;2023-10-19T02:06:24;8.60;99.90
8475;DHT22;4274;52.012;8.448;2023-10-19T02:09:04;8.60;99.90
8475;DHT22;4274;52.012;8.448;2023-10-19T02:11:46;8.60;99.90
8475;DHT22;4274;52.012;8.448;2023-10-19T02:14:13;8.60;99.90
8475;DHT22;4274;52.012;8.448;2023-10-19T02:16:49;8.60;99.90
8475;DHT22;4274;52.012;8.448;2023-10-19T02:19:19;8.60;99.90
8475;DHT22;4274;52.012;8.448;2023-10-19T02:21:48;8.60;99.90
8475;DHT22;4274;52.012;8.448;2023-10-19T02:24:14;8.60;99.90
8475;DHT22;4274;52.012;8.448;2023-10-19T02:26:42;8.60;99.90
8475;DHT22;4274;52.012;8.448;2023-10-19T02:29:08;8.60;99.90
8475;DHT22;4274;52.012;8.448;2023-10-19T02:31:36;8.70;99.90
8475;DHT22;4274;52.012;8.448;2023-10-19T02:34:03;8.70;99.90
8475;DHT22;4274;52.012;8.448;2023-10-19T02:36:33;8.70;99.90
8475;DHT22;4274;52.012;8.448;2023-10-19T02:39:01;8.80;99.90
8475;DHT22;4274;52.012;8.448;2023-10-19T02:41:40;8.80;99.90
8475;DHT22;4274;52.012;8.448;2023-10-19T02:44:17;8.80;99.90
8475;DHT22;4274;52.012;8.448;2023-10-19T02:46:44;8.90;99.90
8475;DHT22;4274;52.012;8.448;2023-10-19T02:49:12;8.90;99.90
8475;DHT22;4274;52.012;8.448;2023-10-19T02:51:49;8.90;99.90
8475;DHT22;4274;52.012;8.448;2023-10-19T02:54:17;8.90;99.90
8475;DHT22;4274;52.012;8.448;2023-10-19T02:56:53;8.90;99.90
8475;DHT22;4274;52.012;8.448;2023-10-19T02:59:21;9.00;99.90
8475;DHT22;4274;52.012;8.448;2023-10-19T03:01:51;9.00;99.90
8475;DHT22;4274;52.012;8.448;2023-10-19T03:04:17;9.00;99.90
8475;DHT22;4274;52.012;8.448;2023-10-19T03:06:44;9.00;99.90
8475;DHT22;4274;52.012;8.448;2023-10-19T03:09:10;9.10;99.90
8475;DHT22;4274;52.012;8.448;2023-10-19T03:11:47;9.10;99.90
8475;DHT22;4274;52.012;8.448;2023-10-19T03:17:52;9.20;99.90
8475;DHT22;4274;52.012;8.448;2023-10-19T03:20:17;9.20;99.90
8475;DHT22;4274;52.012;8.448;2023-10-19T03:22:48;9.10;99.90
8475;DHT22;4274;52.012;8.448;2023-10-19T03:25:14;9.20;99.90
8475;DHT22;4274;52.012;8.448;2023-10-19T03:27:58;9.20;99.90
8475;DHT22;4274;52.012;8.448;2023-10-19T03:30:31;9.20;99.90
8475;DHT22;4274;52.012;8.448;2023-10-19T03:32:57;9.20;99.90
8475;DHT22;4274;52.012;8.448;2023-10-19T03:35:24;9.30;99.90
8475;DHT22;4274;52.012;8.448;2023-10-19T03:37:50;9.30;99.90
8475;DHT22;4274;52.012;8.448;2023-10-19T03:40:17;9.30;99.90
8475;DHT22;4274;52.012;8.448;2023-10-19T03:42:51;9.30;99.90
8475;DHT22;4274;52.012;8.448;2023-10-19T03:45:20;9.30;99.90
8475;DHT22;4274;52.012;8.448;2023-10-19T03:47:50;9.30;99.90
8475;DHT22;4274;52.012;8.448;2023-10-19T03:50:15;9.40;99.90
8475;DHT22;4274;52.012;8.448;2023-10-19T03:52:46;9.40;99.90
8475;DHT22;4274;52.012;8.448;2023-10-19T03:55:11;9.40;99.90
8475;DHT22;4274;52.012;8.448;2023-10-19T03:57:44;9.40;99.90
8475;DHT22;4274;52.012;8.448;2023-10-19T04:00:17;9.40;99.90
8475;DHT22;4274;52.012;8.448;2023-10-19T04:02:44;9.50;99.90
8475;DHT22;4274;52.012;8.448;2023-10-19T04:05:12;9.50;99.90
8475;DHT22;4274;52.012;8.448;2023-10-19T04:07:40;9.60;99.90
8475;DHT22;4274;52.012;8.448;2023-10-19T04:10:09;9.60;99.90
8475;DHT22;4274;52.012;8.448;2023-10-19T04:12:36;9.60;99.90
8475;DHT22;4274;52.012;8.448;2023-10-19T04:15:05;9.60;99.90
8475;DHT22;4274;52.012;8.448;2023-10-19T04:17:45;9.60;99.90
8475;DHT22;4274;52.012;8.448;2023-10-19T04:20:12;9.70;99.90
8475;DHT22;4274;52.012;8.448;2023-10-19T04:22:48;9.70;99.90
8475;DHT22;4274;52.012;8.448;2023-10-19T04:25:15;9.70;99.90
8475;DHT22;4274;52.012;8.448;2023-10-19T04:27:45;9.70;99.90
8475;DHT22;4274;52.012;8.448;2023-10-19T04:30:12;9.70;99.90
8475;DHT22;4274;52.012;8.448;2023-10-19T04:32:48;9.70;99.90
8475;DHT22;4274;52.012;8.448;2023-10-19T04:35:17;9.80;99.90
8475;DHT22;4274;52.012;8.448;2023-10-19T04:37:49;9.80;99.90
8475;DHT22;4274;52.012;8.448;2023-10-19T04:40:16;9.80;99.90
8475;DHT22;4274;52.012;8.448;2023-10-19T04:42:42;9.80;99.90
8475;DHT22;4274;52.012;8.448;2023-10-19T04:45:08;9.90;99.90
8475;DHT22;4274;52.012;8.448;2023-10-19T04:47:34;9.80;99.90
8475;DHT22;4274;52.012;8.448;2023-10-19T04:50:02;9.80;99.90
8475;DHT22;4274;52.012;8.448;2023-10-19T04:52:28;9.90;99.90
8475;DHT22;4274;52.012;8.448;2023-10-19T04:54:54;9.90;99.90
8475;DHT22;4274;52.012;8.448;2023-10-19T04:57:20;9.90;99.90
8475;DHT22;4274;52.012;8.448;2023-10-19T04:59:46;9.90;99.90
8475;DHT22;4274;52.012;8.448;2023-10-19T05:02:12;9.90;99.90
8475;DHT22;4274;52.012;8.448;2023-10-19T05:04:38;10.00;99.90
8475;DHT22;4274;52.012;8.448;2023-10-19T05:07:04;10.00;99.90
8475;DHT22;4274;52.012;8.448;2023-10-19T05:09:31;10.00;99.90
8475;DHT22;4274;52.012;8.448;2023-10-19T05:11:57;10.00;99.90
8475;DHT22;4274;52.012;8.448;2023-10-19T05:14:22;10.10;99.90
8475;DHT22;4274;52.012;8.448;2023-10-19T05:16:48;10.10;99.90
8475;DHT22;4274;52.012;8.448;2023-10-19T05:19:14;10.10;99.90
8475;DHT22;4274;52.012;8.448;2023-10-19T05:21:40;10.20;99.90
8475;DHT22;4274;52.012;8.448;2023-10-19T05:24:06;10.20;99.90
8475;DHT22;4274;52.012;8.448;2023-10-19T05:26:35;10.20;99.90
8475;DHT22;4274;52.012;8.448;2023-10-19T05:29:01;10.20;99.90
8475;DHT22;4274;52.012;8.448;2023-10-19T05:31:26;10.30;99.90
8475;DHT22;4274;52.012;8.448;2023-10-19T05:33:53;10.20;99.90
8475;DHT22;4274;52.012;8.448;2023-10-19T05:36:19;10.30;99.90
8475;DHT22;4274;52.012;8.448;2023-10-19T05:38:45;10.30;99.90
8475;DHT22;4274;52.012;8.448;2023-10-19T05:41:10;10.30;99.90
8475;DHT22;4274;52.012;8.448;2023-10-19T05:43:38;10.40;99.90
8475;DHT22;4274;52.012;8.448;2023-10-19T05:46:04;10.40;99.90
8475;DHT22;4274;52.012;8.448;2023-10-19T05:48:31;10.50;99.90
8475;DHT22;4274;52.012;8.448;2023-10-19T05:50:56;10.40;99.90
8475;DHT22;4274;52.012;8.448;2023-10-19T05:53:22;10.50;99.90
8475;DHT22;4274;52.012;8.448;2023-10-19T05:55:49;10.50;99.90
8475;DHT22;4274;52.012;8.448;2023-10-19T05:58:15;10.50;99.90
8475;DHT22;4274;52.012;8.448;2023-10-19T06:00:41;10.60;99.90
8475;DHT22;4274;52.012;8.448;2023-10-19T06:03:07;10.60;99.90
8475;DHT22;4274;52.012;8.448;2023-10-19T06:05:33;10.60;99.90
8475;DHT22;4274;52.012;8.448;2023-10-19T06:07:59;10.60;99.90
8475;DHT22;4274;52.012;8.448;2023-10-19T06:10:26;10.60;99.90
8475;DHT22;4274;52.012;8.448;2023-10-19T06:12:52;10.70;99.90
8475;DHT22;4274;52.012;8.448;2023-10-19T06:15:20;10.80;99.90
8475;DHT22;4274;52.012;8.448;2023-10-19T06:17:46;10.80;99.90
8475;DHT22;4274;52.012;8.448;2023-10-19T06:20:14;10.80;99.90
8475;DHT22;4274;52.012;8.448;2023-10-19T06:22:47;10.80;99.90
8475;DHT22;4274;52.012;8.448;2023-10-19T06:25:17;10.80;99.90
8475;DHT22;4274;52.012;8.448;2023-10-19T06:27:43;10.80;99.90
8475;DHT22;4274;52.012;8.448;2023-10-19T06:30:09;10.80;99.90
8475;DHT22;4274;52.012;8.448;2023-10-19T06:32:36;10.80;99.90
8475;DHT22;4274;52.012;8.448;2023-10-19T06:35:02;10.90;99.90
8475;DHT22;4274;52.012;8.448;2023-10-19T06:37:28;10.90;99.90
8475;DHT22;4274;52.012;8.448;2023-10-19T06:39:53;10.90;99.90
8475;DHT22;4274;52.012;8.448;2023-10-19T06:42:19;10.90;99.90
8475;DHT22;4274;52.012;8.448;2023-10-19T06:44:45;11.00;99.90
8475;DHT22;4274;52.012;8.448;2023-10-19T06:47:11;11.00;99.90
8475;DHT22;4274;52.012;8.448;2023-10-19T06:49:37;11.00;99.90
8475;DHT22;4274;52.012;8.448;2023-10-19T06:52:03;11.00;99.90
8475;DHT22;4274;52.012;8.448;2023-10-19T06:54:31;11.00;99.90
8475;DHT22;4274;52.012;8.448;2023-10-19T06:56:56;11.10;99.90
8475;DHT22;4274;52.012;8.448;2023-10-19T06:59:22;11.10;99.90
8475;DHT22;4274;52.012;8.448;2023-10-19T07:01:49;11.10;99.90
8475;DHT22;4274;52.012;8.448;2023-10-19T07:04:15;11.20;99.90
8475;DHT22;4274;52.012;8.448;2023-10-19T07:06:41;11.20;99.90
8475;DHT22;4274;52.012;8.448;2023-10-19T07:09:06;11.20;99.90
8475;DHT22;4274;52.012;8.448;2023-10-19T07:11:32;11.20;99.90
8475;DHT22;4274;52.012;8.448;2023-10-19T07:14:01;11.30;99.90
8475;DHT22;4274;52.012;8.448;2023-10-19T07:16:26;11.40;99.90
8475;DHT22;4274;52.012;8.448;2023-10-19T07:18:52;11.40;99.90
8475;DHT22;4274;52.012;8.448;2023-10-19T07:21:19;11.50;99.90
8475;DHT22;4274;52.012;8.448;2023-10-19T07:23:46;11.50;99.90
8475;DHT22;4274;52.012;8.448;2023-10-19T07:26:14;11.60;99.90
8475;DHT22;4274;52.012;8.448;2023-10-19T07:28:40;11.60;99.90
8475;DHT22;4274;52.012;8.448;2023-10-19T07:31:07;11.70;99.90
8475;DHT22;4274;52.012;8.448;2023-10-19T07:33:38;11.70;99.90
8475;DHT22;4274;52.012;8.448;2023-10-19T07:36:12;11.70;99.90
8475;DHT22;4274;52.012;8.448;2023-10-19T07:38:39;11.70;99.90
8475;DHT22;4274;52.012;8.448;2023-10-19T07:41:05;11.80;99.90
8475;DHT22;4274;52.012;8.448;2023-10-19T07:43:31;11.90;99.90
8475;DHT22;4274;52.012;8.448;2023-10-19T07:45:56;12.00;99.90
8475;DHT22;4274;52.012;8.448;2023-10-19T07:48:22;12.10;99.90
8475;DHT22;4274;52.012;8.448;2023-10-19T07:50:47;12.10;99.90
8475;DHT22;4274;52.012;8.448;2023-10-19T07:53:13;12.20;99.90
8475;DHT22;4274;52.012;8.448;2023-10-19T07:55:39;12.20;99.90
8475;DHT22;4274;52.012;8.448;2023-10-19T07:58:05;12.30;99.90
8475;DHT22;4274;52.012;8.448;2023-10-19T08:00:34;12.30;99.90
8475;DHT22;4274;52.012;8.448;2023-10-19T08:03:00;12.30;99.90
8475;DHT22;4274;52.012;8.448;2023-10-19T08:05:26;12.40;99.90
8475;DHT22;4274;52.012;8.448;2023-10-19T08:07:52;12.40;99.90
8475;DHT22;4274;52.012;8.448;2023-10-19T08:10:19;12.40;99.90
8475;DHT22;4274;52.012;8.448;2023-10-19T08:12:47;12.50;99.90
8475;DHT22;4274;52.012;8.448;2023-10-19T08:15:16;12.50;99.90
8475;DHT22;4274;52.012;8.448;2023-10-19T08:17:44;12.50;99.90
8475;DHT22;4274;52.012;8.448;2023-10-19T08:20:11;12.50;99.90
8475;DHT22;4274;52.012;8.448;2023-10-19T08:22:49;12.50;99.90
8475;DHT22;4274;52.012;8.448;2023-10-19T08:25:15;12.60;99.90
8475;DHT22;4274;52.012;8.448;2023-10-19T08:27:41;12.70;99.90
8475;DHT22;4274;52.012;8.448;2023-10-19T08:30:13;12.70;99.90
8475;DHT22;4274;52.012;8.448;2023-10-19T08:32:42;12.80;99.90
8475;DHT22;4274;52.012;8.448;2023-10-19T08:35:08;12.80;99.90
8475;DHT22;4274;52.012;8.448;2023-10-19T08:37:39;12.80;99.90
8475;DHT22;4274;52.012;8.448;2023-10-19T08:40:11;12.90;99.90
8475;DHT22;4274;52.012;8.448;2023-10-19T08:42:46;13.00;99.90
8475;DHT22;4274;52.012;8.448;2023-10-19T08:45:12;13.10;99.90
8475;DHT22;4274;52.012;8.448;2023-10-19T08:47:59;13.20;99.90
8475;DHT22;4274;52.012;8.448;2023-10-19T08:50:30;13.30;99.90
8475;DHT22;4274;52.012;8.448;2023-10-19T08:52:58;13.40;99.90
8475;DHT22;4274;52.012;8.448;2023-10-19T08:55:24;13.50;99.90
8475;DHT22;4274;52.012;8.448;2023-10-19T08:57:51;13.60;99.90
8475;DHT22;4274;52.012;8.448;2023-10-19T09:00:17;13.60;99.90
8475;DHT22;4274;52.012;8.448;2023-10-19T09:02:44;13.60;99.90
8475;DHT22;4274;52.012;8.448;2023-10-19T09:05:10;13.60;99.90
8475;DHT22;4274;52.012;8.448;2023-10-19T09:07:49;13.70;99.90
8475;DHT22;4274;52.012;8.448;2023-10-19T09:10:24;13.70;99.90
8475;DHT22;4274;52.012;8.448;2023-10-19T09:13:01;13.70;99.90
8475;DHT22;4274;52.012;8.448;2023-10-19T09:15:27;13.70;99.90
8475;DHT22;4274;52.012;8.448;2023-10-19T09:17:54;13.70;99.90
8475;DHT22;4274;52.012;8.448;2023-10-19T09:20:21;13.70;99.90
8475;DHT22;4274;52.012;8.448;2023-10-19T09:22:54;13.70;99.90
8475;DHT22;4274;52.012;8.448;2023-10-19T09:25:20;13.70;99.90
8475;DHT22;4274;52.012;8.448;2023-10-19T09:27:46;13.70;99.90
8475;DHT22;4274;52.012;8.448;2023-10-19T09:30:13;13.70;99.90
8475;DHT22;4274;52.012;8.448;2023-10-19T09:32:48;13.80;99.90
8475;DHT22;4274;52.012;8.448;2023-10-19T09:35:15;13.80;99.90
8475;DHT22;4274;52.012;8.448;2023-10-19T09:37:42;13.90;99.90
8475;DHT22;4274;52.012;8.448;2023-10-19T09:40:09;13.90;99.90
8475;DHT22;4274;52.012;8.448;2023-10-19T09:42:40;13.90;99.90
8475;DHT22;4274;52.012;8.448;2023-10-19T09:45:12;14.00;99.90
8475;DHT22;4274;52.012;8.448;2023-10-19T09:47:46;14.00;99.90
8475;DHT22;4274;52.012;8.448;2023-10-19T09:50:13;14.10;99.90
8475;DHT22;4274;52.012;8.448;2023-10-19T09:52:39;14.10;99.90
8475;DHT22;4274;52.012;8.448;2023-10-19T09:55:14;14.20;99.90
8475;DHT22;4274;52.012;8.448;2023-10-19T09:58:15;14.30;99.90
8475;DHT22;4274;52.012;8.448;2023-10-19T10:00:47;14.40;99.90
8475;DHT22;4274;52.012;8.448;2023-10-19T10:03:46;14.50;99.90
8475;DHT22;4274;52.012;8.448;2023-10-19T10:06:13;14.50;99.90
8475;DHT22;4274;52.012;8.448;2023-10-19T10:08:43;14.60;99.90
8475;DHT22;4274;52.012;8.448;2023-10-19T10:11:18;14.60;99.90
8475;DHT22;4274;52.012;8.448;2023-10-19T10:13:45;14.60;99.90
8475;DHT22;4274;52.012;8.448;2023-10-19T10:16:13;14.70;99.90
8475;DHT22;4274;52.012;8.448;2023-10-19T10:18:41;14.70;99.90
8475;DHT22;4274;52.012;8.448;2023-10-19T10:23:44;14.80;99.90
8475;DHT22;4274;52.012;8.448;2023-10-19T10:26:13;14.90;99.90
8475;DHT22;4274;52.012;8.448;2023-10-19T10:28:40;15.00;99.90
8475;DHT22;4274;52.012;8.448;2023-10-19T10:33:43;15.20;99.90
8475;DHT22;4274;52.012;8.448;2023-10-19T10:36:11;15.30;99.90
8475;DHT22;4274;52.012;8.448;2023-10-19T10:38:37;15.40;99.90
8475;DHT22;4274;52.012;8.448;2023-10-19T10:41:03;15.90;99.90
8475;DHT22;4274;52.012;8.448;2023-10-19T10:43:29;16.70;99.90
8475;DHT22;4274;52.012;8.448;2023-10-19T10:46:05;17.50;99.90
8475;DHT22;4274;52.012;8.448;2023-10-19T10:48:31;17.90;99.90
8475;DHT22;4274;52.012;8.448;2023-10-19T10:50:56;18.00;99.90
8475;DHT22;4274;52.012;8.448;2023-10-19T10:53:23;18.00;99.90
8475;DHT22;4274;52.012;8.448;2023-10-19T10:55:52;17.70;99.90
8475;DHT22;4274;52.012;8.448;2023-10-19T10:58:19;17.40;99.90
8475;DHT22;4274;52.012;8.448;2023-10-19T11:00:45;17.10;99.90
8475;DHT22;4274;52.012;8.448;2023-10-19T11:03:16;17.00;99.90
8475;DHT22;4274;52.012;8.448;2023-10-19T11:05:42;17.30;99.90
8475;DHT22;4274;52.012;8.448;2023-10-19T11:10:40;17.80;99.90
8475;DHT22;4274;52.012;8.448;2023-10-19T11:13:11;18.00;99.90
8475;DHT22;4274;52.012;8.448;2023-10-19T11:15:38;18.90;99.90
8475;DHT22;4274;52.012;8.448;2023-10-19T11:18:05;19.70;99.90
8475;DHT22;4274;52.012;8.448;2023-10-19T11:20:32;20.50;99.90
8475;DHT22;4274;52.012;8.448;2023-10-19T11:22:58;21.10;99.90
8475;DHT22;4274;52.012;8.448;2023-10-19T11:25:29;21.30;99.90
8475;DHT22;4274;52.012;8.448;2023-10-19T11:28:00;21.00;99.90
8475;DHT22;4274;52.012;8.448;2023-10-19T11:30:28;20.70;99.90
8475;DHT22;4274;52.012;8.448;2023-10-19T11:32:55;20.30;99.90
8475;DHT22;4274;52.012;8.448;2023-10-19T11:35:28;20.20;99.90
8475;DHT22;4274;52.012;8.448;2023-10-19T11:38:00;20.20;99.90
8475;DHT22;4274;52.012;8.448;2023-10-19T11:40:26;20.20;99.90
8475;DHT22;4274;52.012;8.448;2023-10-19T11:42:53;19.80;99.90
8475;DHT22;4274;52.012;8.448;2023-10-19T11:45:21;19.40;99.90
8475;DHT22;4274;52.012;8.448;2023-10-19T11:47:49;19.10;99.90
8475;DHT22;4274;52.012;8.448;2023-10-19T11:50:16;18.80;99.90
8475;DHT22;4274;52.012;8.448;2023-10-19T11:52:44;18.70;99.90
8475;DHT22;4274;52.012;8.448;2023-10-19T11:55:11;18.50;99.90
8475;DHT22;4274;52.012;8.448;2023-10-19T11:57:39;18.30;99.90
8475;DHT22;4274;52.012;8.448;2023-10-19T12:00:06;18.20;99.90
8475;DHT22;4274;52.012;8.448;2023-10-19T12:02:37;18.10;99.90
8475;DHT22;4274;52.012;8.448;2023-10-19T12:05:05;18.00;99.90
8475;DHT22;4274;52.012;8.448;2023-10-19T12:07:38;17.90;99.90
8475;DHT22;4274;52.012;8.448;2023-10-19T12:10:08;17.70;99.90
8475;DHT22;4274;52.012;8.448;2023-10-19T12:12:37;17.60;99.90
8475;DHT22;4274;52.012;8.448;2023-10-19T12:15:06;17.70;99.90
8475;DHT22;4274;52.012;8.448;2023-10-19T12:17:32;17.80;99.90
8475;DHT22;4274;52.012;8.448;2023-10-19T12:19:58;17.90;99.90
8475;DHT22;4274;52.012;8.448;2023-10-19T12:22:24;18.40;99.90
8475;DHT22;4274;52.012;8.448;2023-10-19T12:24:54;19.30;99.90
8475;DHT22;4274;52.012;8.448;2023-10-19T12:27:20;19.70;99.90
8475;DHT22;4274;52.012;8.448;2023-10-19T12:29:45;19.60;99.90
8475;DHT22;4274;52.012;8.448;2023-10-19T12:32:11;19.30;99.90
8475;DHT22;4274;52.012;8.448;2023-10-19T12:34:40;18.90;99.90
8475;DHT22;4274;52.012;8.448;2023-10-19T12:37:06;18.40;99.90
8475;DHT22;4274;52.012;8.448;2023-10-19T12:39:33;18.20;99.90
8475;DHT22;4274;52.012;8.448;2023-10-19T12:42:05;17.90;99.90
8475;DHT22;4274;52.012;8.448;2023-10-19T12:44:33;17.70;99.90
8475;DHT22;4274;52.012;8.448;2023-10-19T12:47:05;17.50;99.90
8475;DHT22;4274;52.012;8.448;2023-10-19T12:49:35;17.60;99.90
8475;DHT22;4274;52.012;8.448;2023-10-19T12:52:01;17.70;99.90
8475;DHT22;4274;52.012;8.448;2023-10-19T12:54:29;17.70;99.90
8475;DHT22;4274;52.012;8.448;2023-10-19T12:56:54;17.70;99.90
8475;DHT22;4274;52.012;8.448;2023-10-19T12:59:21;17.60;99.90
8475;DHT22;4274;52.012;8.448;2023-10-19T13:01:46;17.50;99.90
8475;DHT22;4274;52.012;8.448;2023-10-19T13:04:14;17.40;99.90
8475;DHT22;4274;52.012;8.448;2023-10-19T13:06:44;17.40;99.90
8475;DHT22;4274;52.012;8.448;2023-10-19T13:09:12;17.50;99.90
8475;DHT22;4274;52.012;8.448;2023-10-19T13:11:41;17.70;99.90
8475;DHT22;4274;52.012;8.448;2023-10-19T13:14:09;17.90;99.90
8475;DHT22;4274;52.012;8.448;2023-10-19T13:16:35;18.00;99.90
8475;DHT22;4274;52.012;8.448;2023-10-19T13:19:01;18.10;99.90
8475;DHT22;4274;52.012;8.448;2023-10-19T13:21:35;18.10;99.90
8475;DHT22;4274;52.012;8.448;2023-10-19T13:24:00;18.10;99.90
8475;DHT22;4274;52.012;8.448;2023-10-19T13:26:27;18.10;99.90
8475;DHT22;4274;52.012;8.448;2023-10-19T13:28:53;18.20;99.90
8475;DHT22;4274;52.012;8.448;2023-10-19T13:31:20;18.40;99.90
8475;DHT22;4274;52.012;8.448;2023-10-19T13:33:47;18.50;99.90
8475;DHT22;4274;52.012;8.448;2023-10-19T13:36:13;18.50;99.90
8475;DHT22;4274;52.012;8.448;2023-10-19T13:38:39;18.50;99.90
8475;DHT22;4274;52.012;8.448;2023-10-19T13:41:07;18.50;99.90
8475;DHT22;4274;52.012;8.448;2023-10-19T13:43:35;18.60;99.90
8475;DHT22;4274;52.012;8.448;2023-10-19T13:46:00;18.70;99.90
8475;DHT22;4274;52.012;8.448;2023-10-19T13:48:27;18.70;99.90
8475;DHT22;4274;52.012;8.448;2023-10-19T13:50:53;18.70;99.90
8475;DHT22;4274;52.012;8.448;2023-10-19T13:53:26;18.70;99.90
8475;DHT22;4274;52.012;8.448;2023-10-19T13:55:52;18.70;99.90
8475;DHT22;4274;52.012;8.448;2023-10-19T13:58:17;18.70;99.90
8475;DHT22;4274;52.012;8.448;2023-10-19T14:00:43;18.60;99.90
8475;DHT22;4274;52.012;8.448;2023-10-19T14:03:10;18.30;99.90
8475;DHT22;4274;52.012;8.448;2023-10-19T14:05:42;18.00;99.90
8475;DHT22;4274;52.012;8.448;2023-10-19T14:08:14;17.80;99.90
8475;DHT22;4274;52.012;8.448;2023-10-19T14:10:40;17.60;99.90
8475;DHT22;4274;52.012;8.448;2023-10-19T14:13:07;17.40;99.90
8475;DHT22;4274;52.012;8.448;2023-10-19T14:15:33;17.20;99.90
8475;DHT22;4274;52.012;8.448;2023-10-19T14:17:59;17.00;99.90
8475;DHT22;4274;52.012;8.448;2023-10-19T14:20:28;16.90;99.90
8475;DHT22;4274;52.012;8.448;2023-10-19T14:22:54;16.80;99.90
8475;DHT22;4274;52.012;8.448;2023-10-19T14:25:20;16.80;99.90
8475;DHT22;4274;52.012;8.448;2023-10-19T14:27:48;16.70;99.90
8475;DHT22;4274;52.012;8.448;2023-10-19T14:30:17;16.70;99.90
8475;DHT22;4274;52.012;8.448;2023-10-19T14:32:45;16.70;99.90
8475;DHT22;4274;52.012;8.448;2023-10-19T14:35:12;16.70;99.90
8475;DHT22;4274;52.012;8.448;2023-10-19T14:37:44;16.70;99.90
8475;DHT22;4274;52.012;8.448;2023-10-19T14:40:11;16.60;99.90
8475;DHT22;4274;52.012;8.448;2023-10-19T14:42:47;16.60;99.90
8475;DHT22;4274;52.012;8.448;2023-10-19T14:45:16;16.50;99.90
8475;DHT22;4274;52.012;8.448;2023-10-19T14:47:49;16.50;99.90
8475;DHT22;4274;52.012;8.448;2023-10-19T14:50:17;16.50;99.90
8475;DHT22;4274;52.012;8.448;2023-10-19T14:52:45;16.50;99.90
8475;DHT22;4274;52.012;8.448;2023-10-19T14:55:11;16.40;99.90
8475;DHT22;4274;52.012;8.448;2023-10-19T14:57:39;16.40;99.90
8475;DHT22;4274;52.012;8.448;2023-10-19T15:00:06;16.40;99.90
8475;DHT22;4274;52.012;8.448;2023-10-19T15:02:44;16.30;99.90
8475;DHT22;4274;52.012;8.448;2023-10-19T15:05:13;16.30;99.90
8475;DHT22;4274;52.012;8.448;2023-10-19T15:07:42;16.20;99.90
8475;DHT22;4274;52.012;8.448;2023-10-19T15:10:10;16.10;99.90
8475;DHT22;4274;52.012;8.448;2023-10-19T15:12:40;16.10;99.90
8475;DHT22;4274;52.012;8.448;2023-10-19T15:15:09;16.00;99.90
8475;DHT22;4274;52.012;8.448;2023-10-19T15:17:37;15.90;99.90
8475;DHT22;4274;52.012;8.448;2023-10-19T15:20:05;15.90;99.90
8475;DHT22;4274;52.012;8.448;2023-10-19T15:22:31;15.80;99.90
8475;DHT22;4274;52.012;8.448;2023-10-19T15:24:58;15.70;99.90
8475;DHT22;4274;52.012;8.448;2023-10-19T15:27:24;15.60;99.90
8475;DHT22;4274;52.012;8.448;2023-10-19T15:29:49;15.60;99.90
8475;DHT22;4274;52.012;8.448;2023-10-19T15:32:15;15.60;99.90
8475;DHT22;4274;52.012;8.448;2023-10-19T15:34:41;15.60;99.90
8475;DHT22;4274;52.012;8.448;2023-10-19T15:37:07;15.60;99.90
8475;DHT22;4274;52.012;8.448;2023-10-19T15:39:32;15.60;99.90
8475;DHT22;4274;52.012;8.448;2023-10-19T15:41:58;15.60;99.90
8475;DHT22;4274;52.012;8.448;2023-10-19T15:44:24;15.50;99.90
8475;DHT22;4274;52.012;8.448;2023-10-19T15:46:51;15.50;99.90
8475;DHT22;4274;52.012;8.448;2023-10-19T15:49:18;15.50;99.90
8475;DHT22;4274;52.012;8.448;2023-10-19T15:51:45;15.40;99.90
8475;DHT22;4274;52.012;8.448;2023-10-19T15:54:11;15.40;99.90
8475;DHT22;4274;52.012;8.448;2023-10-19T15:56:36;15.50;99.90
8475;DHT22;4274;52.012;8.448;2023-10-19T15:59:02;15.50;99.90
8475;DHT22;4274;52.012;8.448;2023-10-19T16:01:27;15.40;99.90
8475;DHT22;4274;52.012;8.448;2023-10-19T16:03:55;15.40;99.90
8475;DHT22;4274;52.012;8.448;2023-10-19T16:06:21;15.40;99.90
8475;DHT22;4274;52.012;8.448;2023-10-19T16:08:47;15.30;99.90
8475;DHT22;4274;52.012;8.448;2023-10-19T16:11:12;15.30;99.90
8475;DHT22;4274;52.012;8.448;2023-10-19T16:13:38;15.30;99.90
8475;DHT22;4274;52.012;8.448;2023-10-19T16:16:05;15.20;99.90
8475;DHT22;4274;52.012;8.448;2023-10-19T16:18:32;15.20;99.90
8475;DHT22;4274;52.012;8.448;2023-10-19T16:20:58;15.20;99.90
8475;DHT22;4274;52.012;8.448;2023-10-19T16:23:23;15.20;99.90
8475;DHT22;4274;52.012;8.448;2023-10-19T16:25:49;15.10;99.90
8475;DHT22;4274;52.012;8.448;2023-10-19T16:28:22;15.10;99.90
8475;DHT22;4274;52.012;8.448;2023-10-19T16:30:47;15.10;99.90